sensor_id;sensor_type;location;lat;lon;timestamp;P1;durP1;ratioP1;P2;durP2;ratioP2
3991;SDS011;2010;48.194;16.394;2022-10-16T00:01:16;43.50;;;37.47;;
3991;SDS011;2010;48.194;16.394;2022-10-16T00:03:47;45.67;;;35.60;;
3991;SDS011;2010;48.194;16.394;2022-10-16T00:06:16;44.70;;;38.20;;
3991;SDS011;2010;48.194;16.394;2022-10-16T00:08:46;45.57;;;38.20;;
3991;SDS011;2010;48.194;16.394;2022-10-16T00:11:15;44.67;;;35.97;;
3991;SDS011;2010;48.194;16.394;2022-10-16T00:13:45;44.80;;;36.20;;
3991;SDS011;2010;48.194;16.394;2022-10-16T00:16:14;44.63;;;35.00;;
3991;SDS011;2010;48.194;16.394;2022-10-16T00:18:42;42.70;;;35.37;;
3991;SDS011;2010;48.194;16.394;2022-10-16T00:21:13;42.30;;;35.53;;
3991;SDS011;2010;48.194;16.394;2022-10-16T00:23:42;43.53;;;36.00;;
3991;SDS011;2010;48.194;16.394;2022-10-16T00:26:12;49.37;;;36.53;;
3991;SDS011;2010;48.194;16.394;2022-10-16T00:28:41;48.30;;;38.07;;
3991;SDS011;2010;48.194;16.394;2022-10-16T00:31:10;42.53;;;35.70;;
3991;SDS011;2010;48.194;16.394;2022-10-16T00:33:39;45.50;;;36.07;;
3991;SDS011;2010;48.194;16.394;2022-10-16T00:36:09;42.90;;;36.43;;
3991;SDS011;2010;48.194;16.394;2022-10-16T00:38:40;48.30;;;36.60;;
3991;SDS011;2010;48.194;16.394;2022-10-16T00:41:10;43.40;;;36.50;;
3991;SDS011;2010;48.194;16.394;2022-10-16T00:43:43;45.80;;;38.00;;
3991;SDS011;2010;48.194;16.394;2022-10-16T00:46:13;46.23;;;36.40;;
3991;SDS011;2010;48.194;16.394;2022-10-16T00:48:45;40.73;;;35.93;;
3991;SDS011;2010;48.194;16.394;2022-10-16T00:51:17;41.43;;;35.20;;
3991;SDS011;2010;48.194;16.394;2022-10-16T00:53:49;44.10;;;36.17;;
3991;SDS011;2010;48.194;16.394;2022-10-16T00:56:17;44.47;;;35.90;;
3991;SDS011;2010;48.194;16.394;2022-10-16T00:58:46;39.23;;;34.20;;
3991;SDS011;2010;48.194;16.394;2022-10-16T01:01:14;43.60;;;35.97;;
3991;SDS011;2010;48.194;16.394;2022-10-16T01:03:42;40.57;;;34.70;;
3991;SDS011;2010;48.194;16.394;2022-10-16T01:06:19;44.07;;;35.97;;
3991;SDS011;2010;48.194;16.394;2022-10-16T01:09:01;41.03;;;35.07;;
3991;SDS011;2010;48.194;16.394;2022-10-16T01:11:37;46.53;;;36.10;;
3991;SDS011;2010;48.194;16.394;2022-10-16T01:14:11;45.73;;;37.60;;
3991;SDS011;2010;48.194;16.394;2022-10-16T01:16:43;45.97;;;36.23;;
3991;SDS011;2010;48.194;16.394;2022-10-16T01:19:16;52.40;;;38.43;;
3991;SDS011;2010;48.194;16.394;2022-10-16T01:21:48;53.60;;;37.60;;
3991;SDS011;2010;48.194;16.394;2022-10-16T01:24:25;49.77;;;38.40;;
3991;SDS011;2010;48.194;16.394;2022-10-16T01:29:48;54.27;;;39.73;;
3991;SDS011;2010;48.194;16.394;2022-10-16T01:32:20;54.90;;;40.43;;
3991;SDS011;2010;48.194;16.394;2022-10-16T01:34:52;52.17;;;37.93;;
3991;SDS011;2010;48.194;16.394;2022-10-16T01:37:24;53.43;;;39.00;;
3991;SDS011;2010;48.194;16.394;2022-10-16T01:39:58;56.03;;;41.23;;
3991;SDS011;2010;48.194;16.394;2022-10-16T01:42:30;67.17;;;42.37;;
3991;SDS011;2010;48.194;16.394;2022-10-16T01:45:01;55.37;;;39.83;;
3991;SDS011;2010;48.194;16.394;2022-10-16T01:47:30;58.43;;;40.43;;
3991;SDS011;2010;48.194;16.394;2022-10-16T01:49:59;61.73;;;42.80;;
3991;SDS011;2010;48.194;16.394;2022-10-16T01:52:28;61.37;;;41.80;;
3991;SDS011;2010;48.194;16.394;2022-10-16T01:54:57;57.10;;;40.00;;
3991;SDS011;2010;48.194;16.394;2022-10-16T01:57:27;53.60;;;40.37;;
3991;SDS011;2010;48.194;16.394;2022-10-16T01:59:58;53.83;;;40.07;;
3991;SDS011;2010;48.194;16.394;2022-10-16T02:02:37;48.10;;;39.03;;
3991;SDS011;2010;48.194;16.394;2022-10-16T02:05:08;53.70;;;38.03;;
3991;SDS011;2010;48.194;16.394;2022-10-16T02:07:39;49.30;;;38.73;;
3991;SDS011;2010;48.194;16.394;2022-10-16T02:10:09;50.63;;;38.33;;
3991;SDS011;2010;48.194;16.394;2022-10-16T02:12:39;50.37;;;37.63;;
3991;SDS011;2010;48.194;16.394;2022-10-16T02:15:09;54.07;;;41.70;;
3991;SDS011;2010;48.194;16.394;2022-10-16T02:17:37;53.23;;;39.70;;
3991;SDS011;2010;48.194;16.394;2022-10-16T02:20:05;53.50;;;37.87;;
3991;SDS011;2010;48.194;16.394;2022-10-16T02:22:34;48.70;;;38.10;;
3991;SDS011;2010;48.194;16.394;2022-10-16T02:25:05;46.60;;;37.67;;
3991;SDS011;2010;48.194;16.394;2022-10-16T02:27:38;49.50;;;36.87;;
3991;SDS011;2010;48.194;16.394;2022-10-16T02:30:11;47.47;;;36.50;;
3991;SDS011;2010;48.194;16.394;2022-10-16T02:32:42;47.60;;;37.33;;
3991;SDS011;2010;48.194;16.394;2022-10-16T02:35:12;53.83;;;38.13;;
3991;SDS011;2010;48.194;16.394;2022-10-16T02:37:41;48.63;;;37.80;;
3991;SDS011;2010;48.194;16.394;2022-10-16T02:40:09;50.43;;;38.50;;
3991;SDS011;2010;48.194;16.394;2022-10-16T02:42:39;47.87;;;36.83;;
3991;SDS011;2010;48.194;16.394;2022-10-16T02:45:10;52.13;;;37.60;;
3991;SDS011;2010;48.194;16.394;2022-10-16T02:47:39;55.90;;;38.53;;
3991;SDS011;2010;48.194;16.394;2022-10-16T02:50:07;48.70;;;39.10;;
3991;SDS011;2010;48.194;16.394;2022-10-16T02:52:35;47.27;;;38.57;;
3991;SDS011;2010;48.194;16.394;2022-10-16T02:55:04;49.57;;;39.33;;
3991;SDS011;2010;48.194;16.394;2022-10-16T02:57:32;57.93;;;41.40;;
3991;SDS011;2010;48.194;16.394;2022-10-16T03:00:02;48.43;;;38.30;;
3991;SDS011;2010;48.194;16.394;2022-10-16T03:02:30;53.43;;;39.70;;
3991;SDS011;2010;48.194;16.394;2022-10-16T03:04:58;46.97;;;39.03;;
3991;SDS011;2010;48.194;16.394;2022-10-16T03:07:26;52.73;;;39.37;;
3991;SDS011;2010;48.194;16.394;2022-10-16T03:09:54;50.60;;;37.37;;
3991;SDS011;2010;48.194;16.394;2022-10-16T03:12:23;48.23;;;36.77;;
3991;SDS011;2010;48.194;16.394;2022-10-16T03:14:51;46.97;;;36.57;;
3991;SDS011;2010;48.194;16.394;2022-10-16T03:17:20;46.80;;;36.60;;
3991;SDS011;2010;48.194;16.394;2022-10-16T03:19:49;48.60;;;36.47;;
3991;SDS011;2010;48.194;16.394;2022-10-16T03:22:17;44.97;;;36.10;;
3991;SDS011;2010;48.194;16.394;2022-10-16T03:24:45;40.67;;;34.10;;
3991;SDS011;2010;48.194;16.394;2022-10-16T03:27:13;47.33;;;35.40;;
3991;SDS011;2010;48.194;16.394;2022-10-16T03:29:41;43.10;;;35.20;;
3991;SDS011;2010;48.194;16.394;2022-10-16T03:32:09;44.57;;;34.80;;
3991;SDS011;2010;48.194;16.394;2022-10-16T03:34:39;41.17;;;33.80;;
3991;SDS011;2010;48.194;16.394;2022-10-16T03:37:07;43.80;;;34.53;;
3991;SDS011;2010;48.194;16.394;2022-10-16T03:39:35;41.83;;;34.10;;
3991;SDS011;2010;48.194;16.394;2022-10-16T03:42:03;46.33;;;34.27;;
3991;SDS011;2010;48.194;16.394;2022-10-16T03:44:32;42.77;;;35.33;;
3991;SDS011;2010;48.194;16.394;2022-10-16T03:47:00;39.73;;;32.63;;
3991;SDS011;2010;48.194;16.394;2022-10-16T03:49:28;38.77;;;31.93;;
3991;SDS011;2010;48.194;16.394;2022-10-16T03:51:57;37.47;;;32.40;;
3991;SDS011;2010;48.194;16.394;2022-10-16T03:54:25;37.53;;;32.20;;
3991;SDS011;2010;48.194;16.394;2022-10-16T03:56:53;40.07;;;31.60;;
3991;SDS011;2010;48.194;16.394;2022-10-16T03:59:21;38.03;;;30.63;;
3991;SDS011;2010;48.194;16.394;2022-10-16T04:01:49;37.13;;;31.93;;
3991;SDS011;2010;48.194;16.394;2022-10-16T04:04:17;40.30;;;33.40;;
3991;SDS011;2010;48.194;16.394;2022-10-16T04:06:46;39.80;;;32.40;;
3991;SDS011;2010;48.194;16.394;2022-10-16T04:09:15;34.70;;;29.27;;
3991;SDS011;2010;48.194;16.394;2022-10-16T04:11:43;38.37;;;31.57;;
3991;SDS011;2010;48.194;16.394;2022-10-16T04:14:11;37.53;;;30.90;;
3991;SDS011;2010;48.194;16.394;2022-10-16T04:16:40;38.63;;;32.30;;
3991;SDS011;2010;48.194;16.394;2022-10-16T04:19:08;40.57;;;33.13;;
3991;SDS011;2010;48.194;16.394;2022-10-16T04:21:37;36.13;;;30.80;;
3991;SDS011;2010;48.194;16.394;2022-10-16T04:24:05;34.43;;;29.80;;
3991;SDS011;2010;48.194;16.394;2022-10-16T04:26:34;35.27;;;30.10;;
3991;SDS011;2010;48.194;16.394;2022-10-16T04:29:02;37.57;;;31.67;;
3991;SDS011;2010;48.194;16.394;2022-10-16T04:31:31;33.47;;;29.60;;
3991;SDS011;2010;48.194;16.394;2022-10-16T04:33:59;33.57;;;28.70;;
3991;SDS011;2010;48.194;16.394;2022-10-16T04:36:27;33.90;;;30.30;;
3991;SDS011;2010;48.194;16.394;2022-10-16T04:38:55;35.23;;;29.77;;
3991;SDS011;2010;48.194;16.394;2022-10-16T04:41:23;34.33;;;29.87;;
3991;SDS011;2010;48.194;16.394;2022-10-16T04:43:53;37.73;;;30.57;;
3991;SDS011;2010;48.194;16.394;2022-10-16T04:46:21;32.03;;;27.67;;
3991;SDS011;2010;48.194;16.394;2022-10-16T04:48:49;35.23;;;28.33;;
3991;SDS011;2010;48.194;16.394;2022-10-16T04:51:17;34.47;;;28.37;;
3991;SDS011;2010;48.194;16.394;2022-10-16T04:53:45;33.90;;;27.93;;
3991;SDS011;2010;48.194;16.394;2022-10-16T04:56:13;35.20;;;30.07;;
3991;SDS011;2010;48.194;16.394;2022-10-16T04:58:42;33.23;;;28.03;;
3991;SDS011;2010;48.194;16.394;2022-10-16T05:01:11;34.10;;;27.30;;
3991;SDS011;2010;48.194;16.394;2022-10-16T05:03:39;30.40;;;26.63;;
3991;SDS011;2010;48.194;16.394;2022-10-16T05:06:08;29.50;;;26.30;;
3991;SDS011;2010;48.194;16.394;2022-10-16T05:08:36;28.67;;;25.43;;
3991;SDS011;2010;48.194;16.394;2022-10-16T05:11:04;29.27;;;24.83;;
3991;SDS011;2010;48.194;16.394;2022-10-16T05:13:32;28.60;;;23.93;;
3991;SDS011;2010;48.194;16.394;2022-10-16T05:16:00;27.33;;;23.60;;
3991;SDS011;2010;48.194;16.394;2022-10-16T05:18:29;26.90;;;23.27;;
3991;SDS011;2010;48.194;16.394;2022-10-16T05:20:57;26.57;;;23.70;;
3991;SDS011;2010;48.194;16.394;2022-10-16T05:23:25;25.80;;;22.53;;
3991;SDS011;2010;48.194;16.394;2022-10-16T05:25:54;27.53;;;23.53;;
3991;SDS011;2010;48.194;16.394;2022-10-16T05:28:24;27.23;;;22.93;;
3991;SDS011;2010;48.194;16.394;2022-10-16T05:30:53;29.70;;;25.07;;
3991;SDS011;2010;48.194;16.394;2022-10-16T05:33:21;32.37;;;26.30;;
3991;SDS011;2010;48.194;16.394;2022-10-16T05:35:51;34.20;;;26.87;;
3991;SDS011;2010;48.194;16.394;2022-10-16T05:38:19;35.63;;;27.03;;
3991;SDS011;2010;48.194;16.394;2022-10-16T05:40:50;38.60;;;28.07;;
3991;SDS011;2010;48.194;16.394;2022-10-16T05:43:18;38.63;;;30.93;;
3991;SDS011;2010;48.194;16.394;2022-10-16T05:45:53;42.47;;;29.57;;
3991;SDS011;2010;48.194;16.394;2022-10-16T05:48:24;45.20;;;33.10;;
3991;SDS011;2010;48.194;16.394;2022-10-16T05:50:57;47.20;;;35.07;;
3991;SDS011;2010;48.194;16.394;2022-10-16T05:53:26;43.43;;;32.10;;
3991;SDS011;2010;48.194;16.394;2022-10-16T05:55:55;46.00;;;34.77;;
3991;SDS011;2010;48.194;16.394;2022-10-16T05:58:24;47.87;;;36.67;;
3991;SDS011;2010;48.194;16.394;2022-10-16T06:00:53;46.47;;;33.07;;
3991;SDS011;2010;48.194;16.394;2022-10-16T06:03:21;48.17;;;35.50;;
3991;SDS011;2010;48.194;16.394;2022-10-16T06:05:49;54.87;;;36.90;;
3991;SDS011;2010;48.194;16.394;2022-10-16T06:08:19;50.43;;;34.70;;
3991;SDS011;2010;48.194;16.394;2022-10-16T06:10:48;47.23;;;35.87;;
3991;SDS011;2010;48.194;16.394;2022-10-16T06:13:17;54.90;;;37.13;;
3991;SDS011;2010;48.194;16.394;2022-10-16T06:15:45;55.90;;;37.93;;
3991;SDS011;2010;48.194;16.394;2022-10-16T06:18:13;54.63;;;37.07;;
3991;SDS011;2010;48.194;16.394;2022-10-16T06:20:41;57.50;;;38.17;;
3991;SDS011;2010;48.194;16.394;2022-10-16T06:23:09;51.00;;;37.07;;
3991;SDS011;2010;48.194;16.394;2022-10-16T06:25:38;51.20;;;37.73;;
3991;SDS011;2010;48.194;16.394;2022-10-16T06:28:06;54.90;;;38.60;;
3991;SDS011;2010;48.194;16.394;2022-10-16T06:30:34;51.70;;;37.53;;
3991;SDS011;2010;48.194;16.394;2022-10-16T06:33:03;53.87;;;38.77;;
3991;SDS011;2010;48.194;16.394;2022-10-16T06:35:31;49.40;;;38.60;;
3991;SDS011;2010;48.194;16.394;2022-10-16T06:37:59;47.37;;;37.10;;
3991;SDS011;2010;48.194;16.394;2022-10-16T06:40:27;52.00;;;39.67;;
3991;SDS011;2010;48.194;16.394;2022-10-16T06:42:57;59.07;;;41.63;;
3991;SDS011;2010;48.194;16.394;2022-10-16T06:45:25;54.40;;;40.40;;
3991;SDS011;2010;48.194;16.394;2022-10-16T06:47:53;51.03;;;37.97;;
3991;SDS011;2010;48.194;16.394;2022-10-16T06:50:21;54.73;;;39.30;;
3991;SDS011;2010;48.194;16.394;2022-10-16T06:52:50;50.23;;;38.50;;
3991;SDS011;2010;48.194;16.394;2022-10-16T06:55:18;61.03;;;41.43;;
3991;SDS011;2010;48.194;16.394;2022-10-16T06:57:46;57.43;;;40.73;;
3991;SDS011;2010;48.194;16.394;2022-10-16T07:00:16;54.50;;;40.80;;
3991;SDS011;2010;48.194;16.394;2022-10-16T07:02:44;57.50;;;43.17;;
3991;SDS011;2010;48.194;16.394;2022-10-16T07:05:12;60.97;;;44.00;;
3991;SDS011;2010;48.194;16.394;2022-10-16T07:07:41;57.60;;;42.63;;
3991;SDS011;2010;48.194;16.394;2022-10-16T07:10:09;59.20;;;43.00;;
3991;SDS011;2010;48.194;16.394;2022-10-16T07:12:37;66.70;;;46.20;;
3991;SDS011;2010;48.194;16.394;2022-10-16T07:15:06;64.03;;;45.73;;
3991;SDS011;2010;48.194;16.394;2022-10-16T07:17:36;65.97;;;45.93;;
3991;SDS011;2010;48.194;16.394;2022-10-16T07:20:04;67.70;;;45.17;;
3991;SDS011;2010;48.194;16.394;2022-10-16T07:22:33;64.20;;;45.00;;
3991;SDS011;2010;48.194;16.394;2022-10-16T07:25:01;62.90;;;45.70;;
3991;SDS011;2010;48.194;16.394;2022-10-16T07:27:29;67.87;;;46.00;;
3991;SDS011;2010;48.194;16.394;2022-10-16T07:29:58;69.00;;;48.20;;
3991;SDS011;2010;48.194;16.394;2022-10-16T07:32:32;79.87;;;49.97;;
3991;SDS011;2010;48.194;16.394;2022-10-16T07:35:01;68.83;;;47.33;;
3991;SDS011;2010;48.194;16.394;2022-10-16T07:37:29;71.50;;;48.30;;
3991;SDS011;2010;48.194;16.394;2022-10-16T07:39:57;71.20;;;50.70;;
3991;SDS011;2010;48.194;16.394;2022-10-16T07:42:26;72.33;;;50.07;;
3991;SDS011;2010;48.194;16.394;2022-10-16T07:44:54;73.20;;;49.70;;
3991;SDS011;2010;48.194;16.394;2022-10-16T07:47:22;68.50;;;48.77;;
3991;SDS011;2010;48.194;16.394;2022-10-16T07:49:51;66.87;;;47.00;;
3991;SDS011;2010;48.194;16.394;2022-10-16T07:52:20;73.00;;;49.00;;
3991;SDS011;2010;48.194;16.394;2022-10-16T07:54:48;72.50;;;49.53;;
3991;SDS011;2010;48.194;16.394;2022-10-16T07:57:17;77.60;;;51.10;;
3991;SDS011;2010;48.194;16.394;2022-10-16T07:59:46;69.17;;;48.57;;
3991;SDS011;2010;48.194;16.394;2022-10-16T08:02:14;64.17;;;47.80;;
3991;SDS011;2010;48.194;16.394;2022-10-16T08:04:42;73.57;;;51.50;;
3991;SDS011;2010;48.194;16.394;2022-10-16T08:07:10;67.13;;;48.20;;
3991;SDS011;2010;48.194;16.394;2022-10-16T08:09:39;72.57;;;50.10;;
3991;SDS011;2010;48.194;16.394;2022-10-16T08:12:08;69.00;;;47.93;;
3991;SDS011;2010;48.194;16.394;2022-10-16T08:14:37;73.90;;;49.50;;
3991;SDS011;2010;48.194;16.394;2022-10-16T08:17:08;66.30;;;45.60;;
3991;SDS011;2010;48.194;16.394;2022-10-16T08:19:37;67.37;;;46.97;;
3991;SDS011;2010;48.194;16.394;2022-10-16T08:22:05;67.00;;;47.03;;
3991;SDS011;2010;48.194;16.394;2022-10-16T08:24:33;67.40;;;46.97;;
3991;SDS011;2010;48.194;16.394;2022-10-16T08:27:04;63.07;;;45.10;;
3991;SDS011;2010;48.194;16.394;2022-10-16T08:29:32;60.13;;;43.77;;
3991;SDS011;2010;48.194;16.394;2022-10-16T08:32:00;72.13;;;47.30;;
3991;SDS011;2010;48.194;16.394;2022-10-16T08:34:28;62.93;;;43.87;;
3991;SDS011;2010;48.194;16.394;2022-10-16T08:36:56;58.50;;;43.90;;
3991;SDS011;2010;48.194;16.394;2022-10-16T08:39:24;60.20;;;42.57;;
3991;SDS011;2010;48.194;16.394;2022-10-16T08:44:47;58.63;;;41.63;;
3991;SDS011;2010;48.194;16.394;2022-10-16T08:47:25;56.23;;;41.00;;
3991;SDS011;2010;48.194;16.394;2022-10-16T08:49:56;61.07;;;43.17;;
3991;SDS011;2010;48.194;16.394;2022-10-16T08:52:25;57.20;;;42.60;;
3991;SDS011;2010;48.194;16.394;2022-10-16T08:54:56;55.97;;;40.60;;
3991;SDS011;2010;48.194;16.394;2022-10-16T08:57:26;53.30;;;42.13;;
3991;SDS011;2010;48.194;16.394;2022-10-16T08:59:54;52.30;;;40.60;;
3991;SDS011;2010;48.194;16.394;2022-10-16T09:02:28;49.23;;;38.30;;
3991;SDS011;2010;48.194;16.394;2022-10-16T09:05:02;49.43;;;37.90;;
3991;SDS011;2010;48.194;16.394;2022-10-16T09:07:38;49.47;;;37.80;;
3991;SDS011;2010;48.194;16.394;2022-10-16T09:10:13;43.90;;;34.80;;
3991;SDS011;2010;48.194;16.394;2022-10-16T09:12:51;51.00;;;38.07;;
3991;SDS011;2010;48.194;16.394;2022-10-16T09:15:24;45.63;;;36.07;;
3991;SDS011;2010;48.194;16.394;2022-10-16T09:17:59;43.97;;;35.93;;
3991;SDS011;2010;48.194;16.394;2022-10-16T09:20:30;42.27;;;34.70;;
3991;SDS011;2010;48.194;16.394;2022-10-16T09:23:12;42.57;;;34.57;;
3991;SDS011;2010;48.194;16.394;2022-10-16T09:25:43;39.10;;;33.47;;
3991;SDS011;2010;48.194;16.394;2022-10-16T09:28:16;45.53;;;35.80;;
3991;SDS011;2010;48.194;16.394;2022-10-16T09:30:44;45.80;;;34.30;;
3991;SDS011;2010;48.194;16.394;2022-10-16T09:33:15;42.90;;;33.60;;
3991;SDS011;2010;48.194;16.394;2022-10-16T09:35:44;38.43;;;31.33;;
3991;SDS011;2010;48.194;16.394;2022-10-16T09:38:25;38.00;;;32.47;;
3991;SDS011;2010;48.194;16.394;2022-10-16T09:40:55;34.83;;;29.87;;
3991;SDS011;2010;48.194;16.394;2022-10-16T09:43:33;37.47;;;31.93;;
3991;SDS011;2010;48.194;16.394;2022-10-16T09:46:07;35.30;;;30.63;;
3991;SDS011;2010;48.194;16.394;2022-10-16T09:48:37;38.43;;;32.63;;
3991;SDS011;2010;48.194;16.394;2022-10-16T09:51:13;41.70;;;33.40;;
3991;SDS011;2010;48.194;16.394;2022-10-16T09:53:45;41.60;;;34.77;;
3991;SDS011;2010;48.194;16.394;2022-10-16T09:56:21;41.83;;;35.03;;
3991;SDS011;2010;48.194;16.394;2022-10-16T09:58:52;42.20;;;35.00;;
3991;SDS011;2010;48.194;16.394;2022-10-16T10:01:22;37.47;;;32.03;;
3991;SDS011;2010;48.194;16.394;2022-10-16T10:03:55;45.87;;;33.80;;
3991;SDS011;2010;48.194;16.394;2022-10-16T10:06:28;40.10;;;33.67;;
3991;SDS011;2010;48.194;16.394;2022-10-16T10:08:58;42.57;;;33.30;;
3991;SDS011;2010;48.194;16.394;2022-10-16T10:11:39;40.00;;;33.00;;
3991;SDS011;2010;48.194;16.394;2022-10-16T10:14:25;41.40;;;35.70;;
3991;SDS011;2010;48.194;16.394;2022-10-16T10:19:47;44.43;;;36.07;;
3991;SDS011;2010;48.194;16.394;2022-10-16T10:22:19;45.27;;;34.67;;
3991;SDS011;2010;48.194;16.394;2022-10-16T10:24:55;46.77;;;39.67;;
3991;SDS011;2010;48.194;16.394;2022-10-16T10:27:26;47.30;;;39.70;;
3991;SDS011;2010;48.194;16.394;2022-10-16T10:30:02;52.43;;;38.67;;
3991;SDS011;2010;48.194;16.394;2022-10-16T10:32:36;51.20;;;40.53;;
3991;SDS011;2010;48.194;16.394;2022-10-16T10:35:13;56.53;;;42.20;;
3991;SDS011;2010;48.194;16.394;2022-10-16T10:37:48;49.60;;;39.90;;
3991;SDS011;2010;48.194;16.394;2022-10-16T10:40:27;48.67;;;39.83;;
3991;SDS011;2010;48.194;16.394;2022-10-16T10:43:01;53.67;;;40.13;;
3991;SDS011;2010;48.194;16.394;2022-10-16T10:45:37;52.23;;;41.73;;
3991;SDS011;2010;48.194;16.394;2022-10-16T10:48:13;48.83;;;39.20;;
3991;SDS011;2010;48.194;16.394;2022-10-16T10:50:48;46.07;;;37.17;;
3991;SDS011;2010;48.194;16.394;2022-10-16T10:53:19;45.77;;;37.90;;
3991;SDS011;2010;48.194;16.394;2022-10-16T10:55:54;45.13;;;37.37;;
3991;SDS011;2010;48.194;16.394;2022-10-16T11:01:34;42.50;;;35.63;;
3991;SDS011;2010;48.194;16.394;2022-10-16T11:04:14;46.43;;;37.23;;
3991;SDS011;2010;48.194;16.394;2022-10-16T11:06:56;44.80;;;35.37;;
3991;SDS011;2010;48.194;16.394;2022-10-16T11:09:27;44.07;;;37.10;;
3991;SDS011;2010;48.194;16.394;2022-10-16T11:11:59;46.60;;;36.50;;
3991;SDS011;2010;48.194;16.394;2022-10-16T11:14:30;41.87;;;35.20;;
3991;SDS011;2010;48.194;16.394;2022-10-16T11:17:04;46.20;;;37.20;;
3991;SDS011;2010;48.194;16.394;2022-10-16T11:19:37;40.97;;;36.33;;
3991;SDS011;2010;48.194;16.394;2022-10-16T11:22:09;44.30;;;37.60;;
3991;SDS011;2010;48.194;16.394;2022-10-16T11:24:42;45.83;;;39.07;;
3991;SDS011;2010;48.194;16.394;2022-10-16T11:27:15;44.70;;;36.80;;
3991;SDS011;2010;48.194;16.394;2022-10-16T11:29:46;49.03;;;39.70;;
3991;SDS011;2010;48.194;16.394;2022-10-16T11:32:23;43.80;;;36.53;;
3991;SDS011;2010;48.194;16.394;2022-10-16T11:34:59;46.10;;;36.63;;
3991;SDS011;2010;48.194;16.394;2022-10-16T11:37:31;46.63;;;38.00;;
3991;SDS011;2010;48.194;16.394;2022-10-16T11:40:03;48.37;;;39.40;;
3991;SDS011;2010;48.194;16.394;2022-10-16T11:42:39;46.23;;;38.30;;
3991;SDS011;2010;48.194;16.394;2022-10-16T11:45:15;46.80;;;37.83;;
3991;SDS011;2010;48.194;16.394;2022-10-16T11:47:57;46.67;;;39.03;;
3991;SDS011;2010;48.194;16.394;2022-10-16T11:50:31;46.60;;;38.40;;
3991;SDS011;2010;48.194;16.394;2022-10-16T11:53:03;47.43;;;40.90;;
3991;SDS011;2010;48.194;16.394;2022-10-16T11:55:37;47.33;;;39.40;;
3991;SDS011;2010;48.194;16.394;2022-10-16T11:58:14;51.20;;;41.80;;
3991;SDS011;2010;48.194;16.394;2022-10-16T12:00:47;48.13;;;40.30;;
3991;SDS011;2010;48.194;16.394;2022-10-16T12:03:25;46.47;;;39.37;;
3991;SDS011;2010;48.194;16.394;2022-10-16T12:06:02;49.93;;;42.07;;
3991;SDS011;2010;48.194;16.394;2022-10-16T12:08:39;46.60;;;37.70;;
3991;SDS011;2010;48.194;16.394;2022-10-16T12:11:08;53.47;;;40.23;;
3991;SDS011;2010;48.194;16.394;2022-10-16T12:13:38;45.93;;;38.13;;
3991;SDS011;2010;48.194;16.394;2022-10-16T12:16:20;49.10;;;39.27;;
3991;SDS011;2010;48.194;16.394;2022-10-16T12:19:02;45.83;;;37.80;;
3991;SDS011;2010;48.194;16.394;2022-10-16T12:21:35;48.23;;;39.17;;
3991;SDS011;2010;48.194;16.394;2022-10-16T12:24:04;46.43;;;37.67;;
3991;SDS011;2010;48.194;16.394;2022-10-16T12:26:32;45.90;;;37.63;;
3991;SDS011;2010;48.194;16.394;2022-10-16T12:29:11;47.80;;;39.67;;
3991;SDS011;2010;48.194;16.394;2022-10-16T12:31:43;49.00;;;41.00;;
3991;SDS011;2010;48.194;16.394;2022-10-16T12:34:26;47.67;;;40.00;;
3991;SDS011;2010;48.194;16.394;2022-10-16T12:36:56;43.50;;;37.30;;
3991;SDS011;2010;48.194;16.394;2022-10-16T12:39:36;52.23;;;41.53;;
3991;SDS011;2010;48.194;16.394;2022-10-16T12:42:05;49.80;;;40.63;;
3991;SDS011;2010;48.194;16.394;2022-10-16T12:44:45;51.10;;;41.53;;
3991;SDS011;2010;48.194;16.394;2022-10-16T12:47:18;47.87;;;40.80;;
3991;SDS011;2010;48.194;16.394;2022-10-16T12:49:51;49.90;;;41.67;;
3991;SDS011;2010;48.194;16.394;2022-10-16T12:52:27;56.60;;;43.43;;
3991;SDS011;2010;48.194;16.394;2022-10-16T12:54:56;47.70;;;40.13;;
3991;SDS011;2010;48.194;16.394;2022-10-16T12:57:34;53.70;;;45.03;;
3991;SDS011;2010;48.194;16.394;2022-10-16T13:00:09;47.63;;;39.93;;
3991;SDS011;2010;48.194;16.394;2022-10-16T13:02:55;51.80;;;43.50;;
3991;SDS011;2010;48.194;16.394;2022-10-16T13:05:35;50.33;;;42.90;;
3991;SDS011;2010;48.194;16.394;2022-10-16T13:08:15;51.90;;;42.67;;
3991;SDS011;2010;48.194;16.394;2022-10-16T13:10:57;50.10;;;41.47;;
3991;SDS011;2010;48.194;16.394;2022-10-16T13:13:40;48.13;;;41.30;;
3991;SDS011;2010;48.194;16.394;2022-10-16T13:16:17;51.73;;;41.80;;
3991;SDS011;2010;48.194;16.394;2022-10-16T13:18:54;50.60;;;41.57;;
3991;SDS011;2010;48.194;16.394;2022-10-16T13:21:32;54.37;;;43.90;;
3991;SDS011;2010;48.194;16.394;2022-10-16T13:24:07;49.53;;;40.20;;
3991;SDS011;2010;48.194;16.394;2022-10-16T13:26:43;47.63;;;40.83;;
3991;SDS011;2010;48.194;16.394;2022-10-16T13:29:14;45.87;;;40.57;;
3991;SDS011;2010;48.194;16.394;2022-10-16T13:31:42;45.03;;;39.10;;
3991;SDS011;2010;48.194;16.394;2022-10-16T13:34:11;45.43;;;38.63;;
3991;SDS011;2010;48.194;16.394;2022-10-16T13:36:46;49.23;;;41.90;;
3991;SDS011;2010;48.194;16.394;2022-10-16T13:39:20;48.33;;;39.90;;
3991;SDS011;2010;48.194;16.394;2022-10-16T13:44:36;47.80;;;38.97;;
3991;SDS011;2010;48.194;16.394;2022-10-16T13:47:15;45.73;;;37.13;;
3991;SDS011;2010;48.194;16.394;2022-10-16T13:49:44;49.53;;;37.37;;
3991;SDS011;2010;48.194;16.394;2022-10-16T13:52:18;45.17;;;38.47;;
3991;SDS011;2010;48.194;16.394;2022-10-16T13:54:47;41.90;;;35.90;;
3991;SDS011;2010;48.194;16.394;2022-10-16T13:57:15;46.33;;;38.97;;
3991;SDS011;2010;48.194;16.394;2022-10-16T13:59:59;44.97;;;37.33;;
3991;SDS011;2010;48.194;16.394;2022-10-16T14:02:30;45.13;;;39.17;;
3991;SDS011;2010;48.194;16.394;2022-10-16T14:05:02;49.90;;;39.47;;
3991;SDS011;2010;48.194;16.394;2022-10-16T14:07:32;47.83;;;37.33;;
3991;SDS011;2010;48.194;16.394;2022-10-16T14:10:02;44.60;;;37.73;;
3991;SDS011;2010;48.194;16.394;2022-10-16T14:12:32;42.40;;;37.77;;
3991;SDS011;2010;48.194;16.394;2022-10-16T14:15:01;39.37;;;35.03;;
3991;SDS011;2010;48.194;16.394;2022-10-16T14:17:30;41.37;;;35.17;;
3991;SDS011;2010;48.194;16.394;2022-10-16T14:20:00;44.43;;;35.30;;
3991;SDS011;2010;48.194;16.394;2022-10-16T14:22:34;37.50;;;33.00;;
3991;SDS011;2010;48.194;16.394;2022-10-16T14:25:18;40.20;;;33.77;;
3991;SDS011;2010;48.194;16.394;2022-10-16T14:27:56;40.20;;;33.50;;
3991;SDS011;2010;48.194;16.394;2022-10-16T14:30:25;37.43;;;31.70;;
3991;SDS011;2010;48.194;16.394;2022-10-16T14:32:54;38.67;;;34.43;;
3991;SDS011;2010;48.194;16.394;2022-10-16T14:35:27;36.80;;;31.33;;
3991;SDS011;2010;48.194;16.394;2022-10-16T14:37:58;37.50;;;33.40;;
3991;SDS011;2010;48.194;16.394;2022-10-16T14:40:28;36.47;;;31.90;;
3991;SDS011;2010;48.194;16.394;2022-10-16T14:42:57;35.10;;;31.20;;
3991;SDS011;2010;48.194;16.394;2022-10-16T14:45:26;35.93;;;32.00;;
3991;SDS011;2010;48.194;16.394;2022-10-16T14:47:57;34.90;;;30.50;;
3991;SDS011;2010;48.194;16.394;2022-10-16T14:50:26;34.70;;;31.00;;
3991;SDS011;2010;48.194;16.394;2022-10-16T14:52:54;36.07;;;30.70;;
3991;SDS011;2010;48.194;16.394;2022-10-16T14:55:23;35.83;;;30.13;;
3991;SDS011;2010;48.194;16.394;2022-10-16T14:57:52;33.07;;;29.47;;
3991;SDS011;2010;48.194;16.394;2022-10-16T15:00:26;33.57;;;29.60;;
3991;SDS011;2010;48.194;16.394;2022-10-16T15:02:54;35.37;;;30.33;;
3991;SDS011;2010;48.194;16.394;2022-10-16T15:05:23;36.30;;;29.73;;
3991;SDS011;2010;48.194;16.394;2022-10-16T15:07:53;39.30;;;31.23;;
3991;SDS011;2010;48.194;16.394;2022-10-16T15:10:24;35.00;;;31.27;;